PWSweather.com
Personal Weather Stations
Station Observations
BZA01
Southern Palatinate, Bad BergzabernDE 76887

Southern PalatinateBad BergzabernDE 76887

Lat: 49.096, Lon: 8

Elevation: 640

Station Type: Davis VP2+

wetter@nelke.org

High Low Average
Temperature 75.7°F24.3°F 51.4°F10.8°F 64.3°F17.9°F
Dew Point 52.3°F11.3°F 46.0°F7.8°F 48.9°F9.4°F
Winds 4.9 mph -7.9 mph - Calm Calm 2.7 mph 4.3 mph
Wind Gusts 10.1 mph16.3 mph -- 2.6 mph4.2 mph
Humidity 83% 38% 60%
Pressure 29.99 in1015.60 in 29.89 in1012.20 in -
Precipitation 0.00 in0.00 in - -
Hour Temp Dew Point Humidity Winds Wind Gusts Pressure Precip Precip Rate Daily Precip Total
12:02 AM 54.9°F12.7°C 46.4°F8.0°C 73% 2.0 mph W3.2 kmh W 2.9 mph4.7 kmh 29.99 in1015.6 mb - 0.00 in0.0 mm 0.00 in0.0 mm
12:07 AM 54.7°F12.6°C 46.2°F7.9°C 73% 2.9 mph W4.7 kmh W 2.0 mph3.2 kmh 29.99 in1015.6 mb - 0.00 in0.0 mm 0.00 in0.0 mm
12:12 AM 54.7°F12.6°C 46.6°F8.1°C 74% 2.0 mph W3.2 kmh W 0.9 mph1.4 kmh 29.99 in1015.6 mb - 0.00 in0.0 mm 0.00 in0.0 mm
12:17 AM 54.3°F12.4°C 46.2°F7.9°C 74% 2.0 mph W3.2 kmh W 2.0 mph3.2 kmh 29.99 in1015.6 mb - 0.00 in0.0 mm 0.00 in0.0 mm
12:22 AM 54.3°F12.4°C 46.2°F7.9°C 74% 2.0 mph W3.2 kmh W 2.9 mph4.7 kmh 29.99 in1015.6 mb - 0.00 in0.0 mm 0.00 in0.0 mm
12:27 AM 54.1°F12.3°C 46.4°F8.0°C 75% 2.0 mph W3.2 kmh W 2.9 mph4.7 kmh 29.99 in1015.6 mb - 0.00 in0.0 mm 0.00 in0.0 mm
12:32 AM 54.1°F12.3°C 46.0°F7.8°C 74% 2.9 mph W4.7 kmh W 4.0 mph6.4 kmh 29.99 in1015.6 mb - 0.00 in0.0 mm 0.00 in0.0 mm
12:37 AM 54.1°F12.3°C 46.0°F7.8°C 74% 4.0 mph W6.4 kmh W 2.9 mph4.7 kmh 29.99 in1015.6 mb - 0.00 in0.0 mm 0.00 in0.0 mm
12:42 AM 54.1°F12.3°C 46.4°F8.0°C 75% 4.0 mph W6.4 kmh W 2.9 mph4.7 kmh 29.99 in1015.6 mb - 0.00 in0.0 mm 0.00 in0.0 mm
12:47 AM 54.0°F12.2°C 46.2°F7.9°C 75% 2.9 mph W4.7 kmh W 2.0 mph3.2 kmh 29.99 in1015.6 mb - 0.00 in0.0 mm 0.00 in0.0 mm
12:52 AM 54.0°F12.2°C 46.2°F7.9°C 75% 4.0 mph W6.4 kmh W 2.9 mph4.7 kmh 29.99 in1015.6 mb - 0.00 in0.0 mm 0.00 in0.0 mm
12:57 AM 54.0°F12.2°C 46.2°F7.9°C 75% 4.0 mph WNW6.4 kmh WNW 2.0 mph3.2 kmh 29.99 in1015.6 mb - 0.00 in0.0 mm 0.00 in0.0 mm
01:02 AM 54.1°F12.3°C 46.4°F8.0°C 75% 2.9 mph W4.7 kmh W 4.0 mph6.4 kmh 29.98 in1015.2 mb - 0.00 in0.0 mm 0.00 in0.0 mm
01:07 AM 54.1°F12.3°C 46.4°F8.0°C 75% 2.9 mph W4.7 kmh W 2.0 mph3.2 kmh 29.98 in1015.2 mb - 0.00 in0.0 mm 0.00 in0.0 mm
01:12 AM 54.1°F12.3°C 46.4°F8.0°C 75% 2.9 mph W4.7 kmh W 4.0 mph6.4 kmh 29.98 in1015.2 mb - 0.00 in0.0 mm 0.00 in0.0 mm
01:17 AM 54.3°F12.4°C 46.6°F8.1°C 75% 2.9 mph WSW4.7 kmh WSW 2.9 mph4.7 kmh 29.98 in1015.2 mb - 0.00 in0.0 mm 0.00 in0.0 mm
01:22 AM 54.3°F12.4°C 46.6°F8.1°C 75% 4.0 mph W6.4 kmh W 2.9 mph4.7 kmh 29.98 in1015.2 mb - 0.00 in0.0 mm 0.00 in0.0 mm
01:27 AM 54.3°F12.4°C 46.6°F8.1°C 75% 4.0 mph W6.4 kmh W 2.9 mph4.7 kmh 29.98 in1015.2 mb - 0.00 in0.0 mm 0.00 in0.0 mm
01:32 AM 54.1°F12.3°C 46.4°F8.0°C 75% 2.9 mph W4.7 kmh W 0.9 mph1.4 kmh 29.97 in1014.9 mb - 0.00 in0.0 mm 0.00 in0.0 mm
01:37 AM 54.1°F12.3°C 46.4°F8.0°C 75% 2.9 mph W4.7 kmh W 2.0 mph3.2 kmh 29.97 in1014.9 mb - 0.00 in0.0 mm 0.00 in0.0 mm
01:42 AM 54.1°F12.3°C 46.4°F8.0°C 75% 2.0 mph W3.2 kmh W 2.9 mph4.7 kmh 29.97 in1014.9 mb - 0.00 in0.0 mm 0.00 in0.0 mm
01:47 AM 54.1°F12.3°C 46.4°F8.0°C 75% 2.0 mph W3.2 kmh W 0.9 mph1.4 kmh 29.97 in1014.9 mb - 0.00 in0.0 mm 0.00 in0.0 mm
01:52 AM 54.0°F12.2°C 46.6°F8.1°C 76% 2.0 mph W3.2 kmh W -- 29.97 in1014.9 mb - 0.00 in0.0 mm 0.00 in0.0 mm
01:57 AM 53.8°F12.1°C 46.4°F8.0°C 76% 2.0 mph W3.2 kmh W 2.9 mph4.7 kmh 29.97 in1014.9 mb - 0.00 in0.0 mm 0.00 in0.0 mm
02:02 AM 53.8°F12.1°C 46.4°F8.0°C 76% 2.0 mph W3.2 kmh W 2.9 mph4.7 kmh 29.97 in1014.9 mb - 0.00 in0.0 mm 0.00 in0.0 mm
02:07 AM 53.4°F11.9°C 46.0°F7.8°C 76% 2.0 mph W3.2 kmh W -- 29.97 in1014.9 mb - 0.00 in0.0 mm 0.00 in0.0 mm
02:12 AM 53.4°F11.9°C 46.4°F8.0°C 77% 2.0 mph W3.2 kmh W 4.0 mph6.4 kmh 29.97 in1014.9 mb - 0.00 in0.0 mm 0.00 in0.0 mm
02:17 AM 53.4°F11.9°C 46.4°F8.0°C 77% 2.9 mph W4.7 kmh W 2.0 mph3.2 kmh 29.96 in1014.6 mb - 0.00 in0.0 mm 0.00 in0.0 mm
02:22 AM 53.4°F11.9°C 46.4°F8.0°C 77% 2.9 mph W4.7 kmh W 2.0 mph3.2 kmh 29.97 in1014.9 mb - 0.00 in0.0 mm 0.00 in0.0 mm
02:27 AM 53.4°F11.9°C 46.4°F8.0°C 77% 2.9 mph W4.7 kmh W 2.9 mph4.7 kmh 29.96 in1014.6 mb - 0.00 in0.0 mm 0.00 in0.0 mm
02:32 AM 53.4°F11.9°C 46.4°F8.0°C 77% 2.9 mph W4.7 kmh W 2.0 mph3.2 kmh 29.96 in1014.6 mb - 0.00 in0.0 mm 0.00 in0.0 mm
02:37 AM 53.4°F11.9°C 46.4°F8.0°C 77% 2.0 mph W3.2 kmh W 2.0 mph3.2 kmh 29.96 in1014.6 mb - 0.00 in0.0 mm 0.00 in0.0 mm
02:42 AM 53.2°F11.8°C 46.2°F7.9°C 77% 2.0 mph W3.2 kmh W 2.9 mph4.7 kmh 29.96 in1014.6 mb - 0.00 in0.0 mm 0.00 in0.0 mm
02:47 AM 53.2°F11.8°C 46.6°F8.1°C 78% 2.0 mph W3.2 kmh W 2.9 mph4.7 kmh 29.96 in1014.6 mb - 0.00 in0.0 mm 0.00 in0.0 mm
02:52 AM 53.4°F11.9°C 46.4°F8.0°C 77% 2.9 mph W4.7 kmh W 4.0 mph6.4 kmh 29.96 in1014.6 mb - 0.00 in0.0 mm 0.00 in0.0 mm
02:57 AM 53.4°F11.9°C 46.4°F8.0°C 77% 2.9 mph W4.7 kmh W 2.0 mph3.2 kmh 29.96 in1014.6 mb - 0.00 in0.0 mm 0.00 in0.0 mm
03:02 AM 53.4°F11.9°C 46.4°F8.0°C 77% 2.9 mph WSW4.7 kmh WSW 0.9 mph1.4 kmh 29.96 in1014.6 mb - 0.00 in0.0 mm 0.00 in0.0 mm
03:07 AM 53.6°F12.0°C 46.6°F8.1°C 77% 2.9 mph W4.7 kmh W 2.9 mph4.7 kmh 29.96 in1014.6 mb - 0.00 in0.0 mm 0.00 in0.0 mm
03:12 AM 53.4°F11.9°C 46.4°F8.0°C 77% 2.9 mph W4.7 kmh W 4.0 mph6.4 kmh 29.96 in1014.6 mb - 0.00 in0.0 mm 0.00 in0.0 mm
03:17 AM 53.2°F11.8°C 46.2°F7.9°C 77% 2.9 mph W4.7 kmh W 4.0 mph6.4 kmh 29.96 in1014.6 mb - 0.00 in0.0 mm 0.00 in0.0 mm
03:22 AM 53.2°F11.8°C 46.6°F8.1°C 78% 4.0 mph W6.4 kmh W 2.9 mph4.7 kmh 29.96 in1014.6 mb - 0.00 in0.0 mm 0.00 in0.0 mm
03:27 AM 53.1°F11.7°C 46.4°F8.0°C 78% 2.9 mph W4.7 kmh W 2.0 mph3.2 kmh 29.96 in1014.6 mb - 0.00 in0.0 mm 0.00 in0.0 mm
03:32 AM 53.1°F11.7°C 46.4°F8.0°C 78% 2.0 mph W3.2 kmh W 0.9 mph1.4 kmh 29.96 in1014.6 mb - 0.00 in0.0 mm 0.00 in0.0 mm
03:37 AM 52.9°F11.6°C 46.6°F8.1°C 79% 0.9 mph W1.4 kmh W 0.9 mph1.4 kmh 29.96 in1014.6 mb - 0.00 in0.0 mm 0.00 in0.0 mm
03:42 AM 52.9°F11.6°C 46.6°F8.1°C 79% 0.9 mph W1.4 kmh W -- 29.96 in1014.6 mb - 0.00 in0.0 mm 0.00 in0.0 mm
03:47 AM 52.7°F11.5°C 46.4°F8.0°C 79% Calm Calm -- 29.96 in1014.6 mb - 0.00 in0.0 mm 0.00 in0.0 mm
03:52 AM 52.5°F11.4°C 46.2°F7.9°C 79% 0.9 mph W1.4 kmh W 2.0 mph3.2 kmh 29.96 in1014.6 mb - 0.00 in0.0 mm 0.00 in0.0 mm
03:57 AM 52.3°F11.3°C 46.4°F8.0°C 80% 2.0 mph W3.2 kmh W 0.9 mph1.4 kmh 29.96 in1014.6 mb - 0.00 in0.0 mm 0.00 in0.0 mm
04:02 AM 52.2°F11.2°C 46.2°F7.9°C 80% 0.9 mph W1.4 kmh W 0.9 mph1.4 kmh 29.96 in1014.6 mb - 0.00 in0.0 mm 0.00 in0.0 mm
04:07 AM 52.0°F11.1°C 46.4°F8.0°C 81% 0.9 mph W1.4 kmh W -- 29.95 in1014.2 mb - 0.00 in0.0 mm 0.00 in0.0 mm
04:12 AM 51.8°F11.0°C 46.2°F7.9°C 81% 0.9 mph W1.4 kmh W -- 29.95 in1014.2 mb - 0.00 in0.0 mm 0.00 in0.0 mm
04:17 AM 51.6°F10.9°C 46.0°F7.8°C 81% 0.9 mph W1.4 kmh W 2.0 mph3.2 kmh 29.95 in1014.2 mb - 0.00 in0.0 mm 0.00 in0.0 mm
04:22 AM 51.6°F10.9°C 46.2°F7.9°C 82% 0.9 mph W1.4 kmh W 0.9 mph1.4 kmh 29.96 in1014.6 mb - 0.00 in0.0 mm 0.00 in0.0 mm
04:27 AM 51.6°F10.9°C 46.2°F7.9°C 82% 0.9 mph W1.4 kmh W 0.9 mph1.4 kmh 29.96 in1014.6 mb - 0.00 in0.0 mm 0.00 in0.0 mm
04:32 AM 51.4°F10.8°C 46.2°F7.9°C 82% 0.9 mph W1.4 kmh W -- 29.96 in1014.6 mb - 0.00 in0.0 mm 0.00 in0.0 mm
04:37 AM 51.4°F10.8°C 46.2°F7.9°C 82% Calm Calm 0.9 mph1.4 kmh 29.96 in1014.6 mb - 0.00 in0.0 mm 0.00 in0.0 mm
04:42 AM 51.4°F10.8°C 46.2°F7.9°C 82% Calm Calm 0.9 mph1.4 kmh 29.96 in1014.6 mb - 0.00 in0.0 mm 0.00 in0.0 mm
04:47 AM 51.4°F10.8°C 46.2°F7.9°C 82% Calm Calm -- 29.96 in1014.6 mb - 0.00 in0.0 mm 0.00 in0.0 mm
04:52 AM 51.6°F10.9°C 46.2°F7.9°C 82% Calm Calm -- 29.96 in1014.6 mb - 0.00 in0.0 mm 0.00 in0.0 mm
04:57 AM 51.6°F10.9°C 46.2°F7.9°C 82% Calm Calm 0.9 mph1.4 kmh 29.96 in1014.6 mb - 0.00 in0.0 mm 0.00 in0.0 mm
05:02 AM 51.6°F10.9°C 46.2°F7.9°C 82% Calm Calm -- 29.96 in1014.6 mb - 0.00 in0.0 mm 0.00 in0.0 mm
05:07 AM 51.4°F10.8°C 46.4°F8.0°C 83% Calm Calm -- 29.96 in1014.6 mb - 0.00 in0.0 mm 0.00 in0.0 mm
05:12 AM 51.4°F10.8°C 46.4°F8.0°C 83% 0.9 mph W1.4 kmh W 0.9 mph1.4 kmh 29.96 in1014.6 mb - 0.00 in0.0 mm 0.00 in0.0 mm
05:17 AM 51.6°F10.9°C 46.6°F8.1°C 83% 0.9 mph W1.4 kmh W 0.9 mph1.4 kmh 29.96 in1014.6 mb - 0.00 in0.0 mm 0.00 in0.0 mm
05:22 AM 51.6°F10.9°C 46.6°F8.1°C 83% Calm Calm -- 29.96 in1014.6 mb - 0.00 in0.0 mm 0.00 in0.0 mm
05:27 AM 51.6°F10.9°C 46.6°F8.1°C 83% Calm Calm 2.0 mph3.2 kmh 29.96 in1014.6 mb - 0.00 in0.0 mm 0.00 in0.0 mm
05:32 AM 51.6°F10.9°C 46.2°F7.9°C 82% 0.9 mph W1.4 kmh W 0.9 mph1.4 kmh 29.96 in1014.6 mb - 0.00 in0.0 mm 0.00 in0.0 mm
05:37 AM 51.6°F10.9°C 46.2°F7.9°C 82% 0.9 mph W1.4 kmh W 0.9 mph1.4 kmh 29.96 in1014.6 mb - 0.00 in0.0 mm 0.00 in0.0 mm
05:42 AM 51.8°F11.0°C 46.8°F8.2°C 83% 0.9 mph W1.4 kmh W 0.9 mph1.4 kmh 29.96 in1014.6 mb - 0.00 in0.0 mm 0.00 in0.0 mm
05:47 AM 51.8°F11.0°C 46.8°F8.2°C 83% 0.9 mph W1.4 kmh W 0.9 mph1.4 kmh 29.96 in1014.6 mb - 0.00 in0.0 mm 0.00 in0.0 mm
05:52 AM 51.8°F11.0°C 46.8°F8.2°C 83% 0.9 mph SE1.4 kmh SE 0.9 mph1.4 kmh 29.96 in1014.6 mb - 0.00 in0.0 mm 0.00 in0.0 mm
05:57 AM 52.0°F11.1°C 46.9°F8.3°C 83% 0.9 mph SE1.4 kmh SE 0.9 mph1.4 kmh 29.96 in1014.6 mb - 0.00 in0.0 mm 0.00 in0.0 mm
06:02 AM 52.0°F11.1°C 46.9°F8.3°C 83% 0.9 mph SSE1.4 kmh SSE 0.9 mph1.4 kmh 29.96 in1014.6 mb - 0.00 in0.0 mm 0.00 in0.0 mm
06:07 AM 52.3°F11.3°C 46.9°F8.3°C 82% 0.9 mph SSE1.4 kmh SSE 2.0 mph3.2 kmh 29.96 in1014.6 mb - 0.00 in0.0 mm 0.00 in0.0 mm
06:12 AM 52.5°F11.4°C 47.1°F8.4°C 82% 0.9 mph S1.4 kmh S 0.9 mph1.4 kmh 29.97 in1014.9 mb - 0.00 in0.0 mm 0.00 in0.0 mm
06:17 AM 52.9°F11.6°C 47.5°F8.6°C 82% 0.9 mph S1.4 kmh S 2.0 mph3.2 kmh 29.96 in1014.6 mb - 0.00 in0.0 mm 0.00 in0.0 mm
06:22 AM 53.2°F11.8°C 47.5°F8.6°C 81% 0.9 mph S1.4 kmh S 0.9 mph1.4 kmh 29.96 in1014.6 mb - 0.00 in0.0 mm 0.00 in0.0 mm
06:27 AM 53.6°F12.0°C 47.8°F8.8°C 81% 0.9 mph S1.4 kmh S -- 29.97 in1014.9 mb - 0.00 in0.0 mm 0.00 in0.0 mm
06:32 AM 54.0°F12.2°C 48.0°F8.9°C 80% Calm Calm -- 29.97 in1014.9 mb - 0.00 in0.0 mm 0.00 in0.0 mm
06:37 AM 54.7°F12.6°C 48.4°F9.1°C 79% Calm Calm -- 29.96 in1014.6 mb - 0.00 in0.0 mm 0.00 in0.0 mm
06:42 AM 55.2°F12.9°C 48.6°F9.2°C 78% Calm Calm -- 29.96 in1014.6 mb - 0.00 in0.0 mm 0.00 in0.0 mm
06:47 AM 55.9°F13.3°C 49.1°F9.5°C 78% Calm Calm -- 29.96 in1014.6 mb - 0.00 in0.0 mm 0.00 in0.0 mm
06:52 AM 56.8°F13.8°C 49.3°F9.6°C 76% 0.9 mph S1.4 kmh S 0.9 mph1.4 kmh 29.97 in1014.9 mb - 0.00 in0.0 mm 0.00 in0.0 mm
06:57 AM 58.1°F14.5°C 50.2°F10.1°C 75% 0.9 mph SSE1.4 kmh SSE 0.9 mph1.4 kmh 29.97 in1014.9 mb - 0.00 in0.0 mm 0.00 in0.0 mm
07:02 AM 58.8°F14.9°C 49.8°F9.9°C 72% 2.0 mph SE3.2 kmh SE 2.0 mph3.2 kmh 29.97 in1014.9 mb - 0.00 in0.0 mm 0.00 in0.0 mm
07:07 AM 59.4°F15.2°C 50.4°F10.2°C 72% 2.9 mph ENE4.7 kmh ENE 0.9 mph1.4 kmh 29.96 in1014.6 mb - 0.00 in0.0 mm 0.00 in0.0 mm
07:12 AM 59.9°F15.5°C 50.9°F10.5°C 72% 2.9 mph NE4.7 kmh NE 2.0 mph3.2 kmh 29.97 in1014.9 mb - 0.00 in0.0 mm 0.00 in0.0 mm
07:17 AM 60.3°F15.7°C 50.4°F10.2°C 70% 2.9 mph NE4.7 kmh NE 0.9 mph1.4 kmh 29.97 in1014.9 mb - 0.00 in0.0 mm 0.00 in0.0 mm
07:22 AM 60.3°F15.7°C 49.6°F9.8°C 68% 2.9 mph NE4.7 kmh NE 2.0 mph3.2 kmh 29.97 in1014.9 mb - 0.00 in0.0 mm 0.00 in0.0 mm
07:27 AM 60.3°F15.7°C 49.6°F9.8°C 68% 4.0 mph ENE6.4 kmh ENE 0.9 mph1.4 kmh 29.97 in1014.9 mb - 0.00 in0.0 mm 0.00 in0.0 mm
07:32 AM 60.3°F15.7°C 49.6°F9.8°C 68% 2.9 mph ENE4.7 kmh ENE 2.0 mph3.2 kmh 29.97 in1014.9 mb - 0.00 in0.0 mm 0.00 in0.0 mm
07:37 AM 60.8°F16.0°C 50.2°F10.1°C 68% 2.9 mph NE4.7 kmh NE 6.0 mph9.7 kmh 29.97 in1014.9 mb - 0.00 in0.0 mm 0.00 in0.0 mm
07:42 AM 61.3°F16.3°C 49.8°F9.9°C 66% 4.0 mph NE6.4 kmh NE 2.9 mph4.7 kmh 29.97 in1014.9 mb - 0.00 in0.0 mm 0.00 in0.0 mm
07:47 AM 61.5°F16.4°C 49.6°F9.8°C 65% 4.0 mph ENE6.4 kmh ENE 6.0 mph9.7 kmh 29.97 in1014.9 mb - 0.00 in0.0 mm 0.00 in0.0 mm
07:52 AM 61.7°F16.5°C 50.2°F10.1°C 66% 4.0 mph E6.4 kmh E 2.9 mph4.7 kmh 29.97 in1014.9 mb - 0.00 in0.0 mm 0.00 in0.0 mm
07:57 AM 62.1°F16.7°C 49.8°F9.9°C 64% 4.0 mph NE6.4 kmh NE 4.0 mph6.4 kmh 29.97 in1014.9 mb - 0.00 in0.0 mm 0.00 in0.0 mm
08:02 AM 62.6°F17.0°C 50.2°F10.1°C 64% 4.0 mph NE6.4 kmh NE 4.0 mph6.4 kmh 29.97 in1014.9 mb - 0.00 in0.0 mm 0.00 in0.0 mm
08:07 AM 63.1°F17.3°C 50.7°F10.4°C 64% 4.0 mph ENE6.4 kmh ENE 2.9 mph4.7 kmh 29.97 in1014.9 mb - 0.00 in0.0 mm 0.00 in0.0 mm
08:12 AM 63.3°F17.4°C 50.0°F10.0°C 62% 4.0 mph NE6.4 kmh NE 2.9 mph4.7 kmh 29.97 in1014.9 mb - 0.00 in0.0 mm 0.00 in0.0 mm
08:17 AM 63.9°F17.7°C 50.5°F10.3°C 62% 4.0 mph ENE6.4 kmh ENE 2.9 mph4.7 kmh 29.97 in1014.9 mb - 0.00 in0.0 mm 0.00 in0.0 mm
08:22 AM 64.2°F17.9°C 51.4°F10.8°C 63% 2.9 mph ENE4.7 kmh ENE 0.9 mph1.4 kmh 29.97 in1014.9 mb - 0.00 in0.0 mm 0.00 in0.0 mm
08:27 AM 64.6°F18.1°C 50.4°F10.2°C 60% 2.9 mph NE4.7 kmh NE 2.9 mph4.7 kmh 29.97 in1014.9 mb - 0.00 in0.0 mm 0.00 in0.0 mm
08:32 AM 64.9°F18.3°C 50.7°F10.4°C 60% 4.0 mph ENE6.4 kmh ENE 4.0 mph6.4 kmh 29.97 in1014.9 mb - 0.00 in0.0 mm 0.00 in0.0 mm
08:37 AM 64.9°F18.3°C 50.7°F10.4°C 60% 4.9 mph ENE7.9 kmh ENE 4.9 mph7.9 kmh 29.97 in1014.9 mb - 0.00 in0.0 mm 0.00 in0.0 mm
08:42 AM 64.9°F18.3°C 51.1°F10.6°C 61% 4.0 mph ENE6.4 kmh ENE 0.9 mph1.4 kmh 29.97 in1014.9 mb - 0.00 in0.0 mm 0.00 in0.0 mm
08:47 AM 65.3°F18.5°C 50.2°F10.1°C 58% 2.9 mph NNE4.7 kmh NNE 2.9 mph4.7 kmh 29.97 in1014.9 mb - 0.00 in0.0 mm 0.00 in0.0 mm
08:52 AM 65.8°F18.8°C 50.2°F10.1°C 57% 2.9 mph NE4.7 kmh NE 8.9 mph14.3 kmh 29.97 in1014.9 mb - 0.00 in0.0 mm 0.00 in0.0 mm
08:57 AM 65.7°F18.7°C 49.1°F9.5°C 55% 4.0 mph E6.4 kmh E 2.9 mph4.7 kmh 29.97 in1014.9 mb - 0.00 in0.0 mm 0.00 in0.0 mm
09:02 AM 65.8°F18.8°C 50.7°F10.4°C 58% 4.0 mph NE6.4 kmh NE 2.9 mph4.7 kmh 29.96 in1014.6 mb - 0.00 in0.0 mm 0.00 in0.0 mm
09:07 AM 66.4°F19.1°C 50.2°F10.1°C 56% 2.9 mph NE4.7 kmh NE 4.9 mph7.9 kmh 29.97 in1014.9 mb - 0.00 in0.0 mm 0.00 in0.0 mm
09:12 AM 66.6°F19.2°C 49.5°F9.7°C 54% 4.9 mph NE7.9 kmh NE 8.9 mph14.3 kmh 29.96 in1014.6 mb - 0.00 in0.0 mm 0.00 in0.0 mm
09:17 AM 66.6°F19.2°C 50.4°F10.2°C 56% 4.9 mph ENE7.9 kmh ENE 2.9 mph4.7 kmh 29.97 in1014.9 mb - 0.00 in0.0 mm 0.00 in0.0 mm
09:22 AM 66.9°F19.4°C 50.2°F10.1°C 55% 4.0 mph ENE6.4 kmh ENE 2.0 mph3.2 kmh 29.97 in1014.9 mb - 0.00 in0.0 mm 0.00 in0.0 mm
09:27 AM 67.3°F19.6°C 50.5°F10.3°C 55% 4.0 mph ENE6.4 kmh ENE 2.0 mph3.2 kmh 29.97 in1014.9 mb - 0.00 in0.0 mm 0.00 in0.0 mm
09:32 AM 67.5°F19.7°C 51.3°F10.7°C 56% 2.9 mph NE4.7 kmh NE 6.0 mph9.7 kmh 29.96 in1014.6 mb - 0.00 in0.0 mm 0.00 in0.0 mm
09:37 AM 67.5°F19.7°C 50.7°F10.4°C 55% 2.9 mph ENE4.7 kmh ENE 4.0 mph6.4 kmh 29.96 in1014.6 mb - 0.00 in0.0 mm 0.00 in0.0 mm
09:42 AM 67.6°F19.8°C 50.9°F10.5°C 55% 4.0 mph ESE6.4 kmh ESE 2.0 mph3.2 kmh 29.97 in1014.9 mb - 0.00 in0.0 mm 0.00 in0.0 mm
09:47 AM 67.8°F19.9°C 50.5°F10.3°C 54% 4.0 mph ENE6.4 kmh ENE 2.0 mph3.2 kmh 29.96 in1014.6 mb - 0.00 in0.0 mm 0.00 in0.0 mm
09:52 AM 68.0°F20.0°C 51.8°F11.0°C 56% 2.9 mph NE4.7 kmh NE 2.9 mph4.7 kmh 29.96 in1014.6 mb - 0.00 in0.0 mm 0.00 in0.0 mm
09:57 AM 68.4°F20.2°C 51.1°F10.6°C 54% 2.9 mph E4.7 kmh E 4.9 mph7.9 kmh 29.96 in1014.6 mb - 0.00 in0.0 mm 0.00 in0.0 mm
10:02 AM 68.2°F20.1°C 49.8°F9.9°C 52% 4.0 mph NE6.4 kmh NE 2.0 mph3.2 kmh 29.96 in1014.6 mb - 0.00 in0.0 mm 0.00 in0.0 mm
10:07 AM 68.2°F20.1°C 50.9°F10.5°C 54% 4.0 mph NE6.4 kmh NE 2.9 mph4.7 kmh 29.96 in1014.6 mb - 0.00 in0.0 mm 0.00 in0.0 mm
10:12 AM 68.4°F20.2°C 50.0°F10.0°C 52% 4.0 mph NE6.4 kmh NE 6.9 mph11.1 kmh 29.96 in1014.6 mb - 0.00 in0.0 mm 0.00 in0.0 mm
10:17 AM 68.4°F20.2°C 50.5°F10.3°C 53% 4.9 mph NE7.9 kmh NE 6.0 mph9.7 kmh 29.96 in1014.6 mb - 0.00 in0.0 mm 0.00 in0.0 mm
10:22 AM 68.4°F20.2°C 50.5°F10.3°C 53% 4.9 mph E7.9 kmh E 2.9 mph4.7 kmh 29.96 in1014.6 mb - 0.00 in0.0 mm 0.00 in0.0 mm
10:27 AM 68.5°F20.3°C 50.7°F10.4°C 53% 4.0 mph E6.4 kmh E 6.9 mph11.1 kmh 29.96 in1014.6 mb - 0.00 in0.0 mm 0.00 in0.0 mm
10:32 AM 68.9°F20.5°C 50.0°F10.0°C 51% 4.0 mph NNE6.4 kmh NNE 0.9 mph1.4 kmh 29.96 in1014.6 mb - 0.00 in0.0 mm 0.00 in0.0 mm
10:37 AM 69.3°F20.7°C 52.0°F11.1°C 54% 2.9 mph NE4.7 kmh NE 4.9 mph7.9 kmh 29.96 in1014.6 mb - 0.00 in0.0 mm 0.00 in0.0 mm
10:42 AM 69.4°F20.8°C 51.1°F10.6°C 52% 2.9 mph NNE4.7 kmh NNE 2.9 mph4.7 kmh 29.96 in1014.6 mb - 0.00 in0.0 mm 0.00 in0.0 mm
10:47 AM 70.0°F21.1°C 51.6°F10.9°C 52% 2.9 mph NE4.7 kmh NE 2.9 mph4.7 kmh 29.96 in1014.6 mb - 0.00 in0.0 mm 0.00 in0.0 mm
10:52 AM 70.2°F21.2°C 51.3°F10.7°C 51% 2.9 mph NE4.7 kmh NE 2.0 mph3.2 kmh 29.96 in1014.6 mb - 0.00 in0.0 mm 0.00 in0.0 mm
10:57 AM 70.2°F21.2°C 50.7°F10.4°C 50% 4.0 mph NE6.4 kmh NE 4.9 mph7.9 kmh 29.96 in1014.6 mb - 0.00 in0.0 mm 0.00 in0.0 mm
11:02 AM 70.0°F21.1°C 51.1°F10.6°C 51% 2.9 mph NE4.7 kmh NE 2.9 mph4.7 kmh 29.96 in1014.6 mb - 0.00 in0.0 mm 0.00 in0.0 mm
11:07 AM 70.0°F21.1°C 51.6°F10.9°C 52% 2.9 mph NE4.7 kmh NE 2.0 mph3.2 kmh 29.96 in1014.6 mb - 0.00 in0.0 mm 0.00 in0.0 mm
11:12 AM 70.3°F21.3°C 51.4°F10.8°C 51% 2.9 mph ENE4.7 kmh ENE 4.0 mph6.4 kmh 29.96 in1014.6 mb - 0.00 in0.0 mm 0.00 in0.0 mm
11:17 AM 70.5°F21.4°C 50.9°F10.5°C 50% 2.9 mph NE4.7 kmh NE 2.9 mph4.7 kmh 29.96 in1014.6 mb - 0.00 in0.0 mm 0.00 in0.0 mm
11:22 AM 70.9°F21.6°C 50.2°F10.1°C 48% 4.0 mph ENE6.4 kmh ENE 2.9 mph4.7 kmh 29.96 in1014.6 mb - 0.00 in0.0 mm 0.00 in0.0 mm
11:27 AM 70.9°F21.6°C 50.7°F10.4°C 49% 2.9 mph E4.7 kmh E 2.9 mph4.7 kmh 29.96 in1014.6 mb - 0.00 in0.0 mm 0.00 in0.0 mm
11:32 AM 70.9°F21.6°C 49.6°F9.8°C 47% 2.9 mph E4.7 kmh E 2.0 mph3.2 kmh 29.96 in1014.6 mb - 0.00 in0.0 mm 0.00 in0.0 mm
11:37 AM 71.1°F21.7°C 50.9°F10.5°C 49% 2.9 mph ENE4.7 kmh ENE 4.9 mph7.9 kmh 29.96 in1014.6 mb - 0.00 in0.0 mm 0.00 in0.0 mm
11:42 AM 71.2°F21.8°C 49.5°F9.7°C 46% 4.0 mph NE6.4 kmh NE 2.9 mph4.7 kmh 29.95 in1014.2 mb - 0.00 in0.0 mm 0.00 in0.0 mm
11:47 AM 71.1°F21.7°C 49.3°F9.6°C 46% 4.0 mph E6.4 kmh E 4.9 mph7.9 kmh 29.95 in1014.2 mb - 0.00 in0.0 mm 0.00 in0.0 mm
11:52 AM 70.7°F21.5°C 48.9°F9.4°C 46% 2.9 mph ESE4.7 kmh ESE 2.9 mph4.7 kmh 29.95 in1014.2 mb - 0.00 in0.0 mm 0.00 in0.0 mm
11:57 AM 70.7°F21.5°C 50.0°F10.0°C 48% 2.9 mph E4.7 kmh E 4.0 mph6.4 kmh 29.95 in1014.2 mb - 0.00 in0.0 mm 0.00 in0.0 mm
12:02 PM 71.1°F21.7°C 50.9°F10.5°C 49% 2.9 mph E4.7 kmh E 2.0 mph3.2 kmh 29.95 in1014.2 mb - 0.00 in0.0 mm 0.00 in0.0 mm
12:07 PM 71.4°F21.9°C 50.7°F10.4°C 48% 2.9 mph E4.7 kmh E 2.9 mph4.7 kmh 29.95 in1014.2 mb - 0.00 in0.0 mm 0.00 in0.0 mm
12:12 PM 71.4°F21.9°C 50.7°F10.4°C 48% 2.9 mph NE4.7 kmh NE 0.9 mph1.4 kmh 29.95 in1014.2 mb - 0.00 in0.0 mm 0.00 in0.0 mm
12:17 PM 71.4°F21.9°C 50.7°F10.4°C 48% 2.9 mph ENE4.7 kmh ENE 0.9 mph1.4 kmh 29.95 in1014.2 mb - 0.00 in0.0 mm 0.00 in0.0 mm
12:22 PM 72.0°F22.2°C 50.7°F10.4°C 47% 2.9 mph ENE4.7 kmh ENE 2.9 mph4.7 kmh 29.95 in1014.2 mb - 0.00 in0.0 mm 0.00 in0.0 mm
12:27 PM 72.1°F22.3°C 50.2°F10.1°C 46% 2.9 mph ENE4.7 kmh ENE 0.9 mph1.4 kmh 29.94 in1013.9 mb - 0.00 in0.0 mm 0.00 in0.0 mm
12:32 PM 72.3°F22.4°C 50.9°F10.5°C 47% 2.9 mph NE4.7 kmh NE 2.9 mph4.7 kmh 29.94 in1013.9 mb - 0.00 in0.0 mm 0.00 in0.0 mm
12:37 PM 72.5°F22.5°C 52.3°F11.3°C 49% 2.9 mph NE4.7 kmh NE 6.0 mph9.7 kmh 29.94 in1013.9 mb - 0.00 in0.0 mm 0.00 in0.0 mm
12:42 PM 72.9°F22.7°C 50.9°F10.5°C 46% 2.9 mph ESE4.7 kmh ESE 2.0 mph3.2 kmh 29.94 in1013.9 mb - 0.00 in0.0 mm 0.00 in0.0 mm
12:47 PM 72.9°F22.7°C 50.9°F10.5°C 46% 2.9 mph NE4.7 kmh NE 2.9 mph4.7 kmh 29.94 in1013.9 mb - 0.00 in0.0 mm 0.00 in0.0 mm
12:52 PM 72.9°F22.7°C 50.9°F10.5°C 46% 2.0 mph SE3.2 kmh SE 4.9 mph7.9 kmh 29.94 in1013.9 mb - 0.00 in0.0 mm 0.00 in0.0 mm
12:57 PM 73.0°F22.8°C 49.8°F9.9°C 44% 2.9 mph NE4.7 kmh NE 4.0 mph6.4 kmh 29.94 in1013.9 mb - 0.00 in0.0 mm 0.00 in0.0 mm
01:02 PM 73.2°F22.9°C 49.5°F9.7°C 43% 2.9 mph NE4.7 kmh NE 2.0 mph3.2 kmh 29.94 in1013.9 mb - 0.00 in0.0 mm 0.00 in0.0 mm
01:07 PM 73.2°F22.9°C 48.7°F9.3°C 42% 4.0 mph E6.4 kmh E 4.0 mph6.4 kmh 29.94 in1013.9 mb - 0.00 in0.0 mm 0.00 in0.0 mm
01:12 PM 73.2°F22.9°C 48.7°F9.3°C 42% 4.0 mph NE6.4 kmh NE 0.9 mph1.4 kmh 29.94 in1013.9 mb - 0.00 in0.0 mm 0.00 in0.0 mm
01:17 PM 73.2°F22.9°C 50.0°F10.0°C 44% 2.9 mph SE4.7 kmh SE 2.0 mph3.2 kmh 29.94 in1013.9 mb - 0.00 in0.0 mm 0.00 in0.0 mm
01:22 PM 73.4°F23.0°C 50.2°F10.1°C 44% 2.9 mph E4.7 kmh E 4.0 mph6.4 kmh 29.94 in1013.9 mb - 0.00 in0.0 mm 0.00 in0.0 mm
01:27 PM 73.4°F23.0°C 48.9°F9.4°C 42% 2.9 mph ENE4.7 kmh ENE 2.0 mph3.2 kmh 29.94 in1013.9 mb - 0.00 in0.0 mm 0.00 in0.0 mm
01:32 PM 73.6°F23.1°C 50.9°F10.5°C 45% 2.9 mph ENE4.7 kmh ENE 2.0 mph3.2 kmh 29.94 in1013.9 mb - 0.00 in0.0 mm 0.00 in0.0 mm
01:37 PM 73.8°F23.2°C 49.3°F9.6°C 42% 2.9 mph E4.7 kmh E 0.9 mph1.4 kmh 29.94 in1013.9 mb - 0.00 in0.0 mm 0.00 in0.0 mm
01:42 PM 73.9°F23.3°C 48.7°F9.3°C 41% 2.0 mph E3.2 kmh E 0.9 mph1.4 kmh 29.93 in1013.5 mb - 0.00 in0.0 mm 0.00 in0.0 mm
01:47 PM 74.3°F23.5°C 49.1°F9.5°C 41% 2.0 mph NE3.2 kmh NE 2.9 mph4.7 kmh 29.93 in1013.5 mb - 0.00 in0.0 mm 0.00 in0.0 mm
01:52 PM 74.3°F23.5°C 49.6°F9.8°C 42% 2.0 mph E3.2 kmh E 2.9 mph4.7 kmh 29.93 in1013.5 mb - 0.00 in0.0 mm 0.00 in0.0 mm
01:57 PM 74.3°F23.5°C 49.1°F9.5°C 41% 2.9 mph ENE4.7 kmh ENE 0.9 mph1.4 kmh 29.93 in1013.5 mb - 0.00 in0.0 mm 0.00 in0.0 mm
02:02 PM 74.5°F23.6°C 47.8°F8.8°C 39% 2.9 mph NE4.7 kmh NE 4.9 mph7.9 kmh 29.93 in1013.5 mb - 0.00 in0.0 mm 0.00 in0.0 mm
02:07 PM 74.5°F23.6°C 48.6°F9.2°C 40% 2.9 mph NE4.7 kmh NE 4.0 mph6.4 kmh 29.93 in1013.5 mb - 0.00 in0.0 mm 0.00 in0.0 mm
02:12 PM 74.7°F23.7°C 47.3°F8.5°C 38% 2.9 mph SE4.7 kmh SE 4.0 mph6.4 kmh 29.93 in1013.5 mb - 0.00 in0.0 mm 0.00 in0.0 mm
02:17 PM 74.8°F23.8°C 48.2°F9.0°C 39% 2.0 mph NE3.2 kmh NE 2.0 mph3.2 kmh 29.93 in1013.5 mb - 0.00 in0.0 mm 0.00 in0.0 mm
02:22 PM 74.7°F23.7°C 48.7°F9.3°C 40% 2.0 mph E3.2 kmh E 2.0 mph3.2 kmh 29.93 in1013.5 mb - 0.00 in0.0 mm 0.00 in0.0 mm
02:27 PM 74.8°F23.8°C 48.2°F9.0°C 39% 2.9 mph E4.7 kmh E 4.0 mph6.4 kmh 29.93 in1013.5 mb - 0.00 in0.0 mm 0.00 in0.0 mm
02:32 PM 74.8°F23.8°C 48.2°F9.0°C 39% 2.9 mph E4.7 kmh E 4.0 mph6.4 kmh 29.93 in1013.5 mb - 0.00 in0.0 mm 0.00 in0.0 mm
02:37 PM 74.7°F23.7°C 47.3°F8.5°C 38% 2.9 mph ESE4.7 kmh ESE 2.9 mph4.7 kmh 29.93 in1013.5 mb - 0.00 in0.0 mm 0.00 in0.0 mm
02:42 PM 74.7°F23.7°C 49.5°F9.7°C 41% 2.9 mph ENE4.7 kmh ENE 2.9 mph4.7 kmh 29.93 in1013.5 mb - 0.00 in0.0 mm 0.00 in0.0 mm
02:47 PM 74.7°F23.7°C 48.7°F9.3°C 40% 4.0 mph E6.4 kmh E 2.0 mph3.2 kmh 29.93 in1013.5 mb - 0.00 in0.0 mm 0.00 in0.0 mm
02:52 PM 74.5°F23.6°C 48.6°F9.2°C 40% 4.0 mph NE6.4 kmh NE 2.9 mph4.7 kmh 29.93 in1013.5 mb - 0.00 in0.0 mm 0.00 in0.0 mm
02:57 PM 74.7°F23.7°C 49.5°F9.7°C 41% 2.9 mph NE4.7 kmh NE 0.9 mph1.4 kmh 29.93 in1013.5 mb - 0.00 in0.0 mm 0.00 in0.0 mm
03:02 PM 74.7°F23.7°C 48.0°F8.9°C 39% 2.9 mph NE4.7 kmh NE 4.0 mph6.4 kmh 29.93 in1013.5 mb - 0.00 in0.0 mm 0.00 in0.0 mm
03:07 PM 74.7°F23.7°C 48.7°F9.3°C 40% 2.9 mph SE4.7 kmh SE 2.0 mph3.2 kmh 29.92 in1013.2 mb - 0.00 in0.0 mm 0.00 in0.0 mm
03:12 PM 74.5°F23.6°C 49.3°F9.6°C 41% 2.9 mph ENE4.7 kmh ENE 4.0 mph6.4 kmh 29.92 in1013.2 mb - 0.00 in0.0 mm 0.00 in0.0 mm
03:17 PM 74.7°F23.7°C 49.5°F9.7°C 41% 2.9 mph NE4.7 kmh NE 2.9 mph4.7 kmh 29.92 in1013.2 mb - 0.00 in0.0 mm 0.00 in0.0 mm
03:22 PM 74.7°F23.7°C 48.0°F8.9°C 39% 4.0 mph E6.4 kmh E 4.0 mph6.4 kmh 29.92 in1013.2 mb - 0.00 in0.0 mm 0.00 in0.0 mm
03:27 PM 74.7°F23.7°C 49.5°F9.7°C 41% 4.0 mph ENE6.4 kmh ENE 2.9 mph4.7 kmh 29.92 in1013.2 mb - 0.00 in0.0 mm 0.00 in0.0 mm
03:32 PM 75.0°F23.9°C 49.1°F9.5°C 40% 2.9 mph NE4.7 kmh NE 2.9 mph4.7 kmh 29.92 in1013.2 mb - 0.00 in0.0 mm 0.00 in0.0 mm
03:37 PM 75.0°F23.9°C 48.4°F9.1°C 39% 4.0 mph NE6.4 kmh NE 4.9 mph7.9 kmh 29.92 in1013.2 mb - 0.00 in0.0 mm 0.00 in0.0 mm
03:42 PM 74.7°F23.7°C 48.7°F9.3°C 40% 4.0 mph ENE6.4 kmh ENE 2.0 mph3.2 kmh 29.92 in1013.2 mb - 0.00 in0.0 mm 0.00 in0.0 mm
03:47 PM 74.7°F23.7°C 48.7°F9.3°C 40% 4.0 mph E6.4 kmh E 2.9 mph4.7 kmh 29.92 in1013.2 mb - 0.00 in0.0 mm 0.00 in0.0 mm
03:52 PM 74.3°F23.5°C 48.4°F9.1°C 40% 4.0 mph NE6.4 kmh NE 4.0 mph6.4 kmh 29.91 in1012.9 mb - 0.00 in0.0 mm 0.00 in0.0 mm
03:57 PM 74.5°F23.6°C 49.3°F9.6°C 41% 4.0 mph E6.4 kmh E 4.0 mph6.4 kmh 29.91 in1012.9 mb - 0.00 in0.0 mm 0.00 in0.0 mm
04:02 PM 74.5°F23.6°C 48.6°F9.2°C 40% 2.9 mph E4.7 kmh E 4.0 mph6.4 kmh 29.91 in1012.9 mb - 0.00 in0.0 mm 0.00 in0.0 mm
04:07 PM 74.3°F23.5°C 48.4°F9.1°C 40% 4.0 mph E6.4 kmh E 2.0 mph3.2 kmh 29.91 in1012.9 mb - 0.00 in0.0 mm 0.00 in0.0 mm
04:12 PM 74.3°F23.5°C 49.1°F9.5°C 41% 2.9 mph E4.7 kmh E 2.9 mph4.7 kmh 29.91 in1012.9 mb - 0.00 in0.0 mm 0.00 in0.0 mm
04:17 PM 74.5°F23.6°C 49.8°F9.9°C 42% 2.9 mph E4.7 kmh E 4.0 mph6.4 kmh 29.91 in1012.9 mb - 0.00 in0.0 mm 0.00 in0.0 mm
04:22 PM 74.5°F23.6°C 49.3°F9.6°C 41% 2.9 mph E4.7 kmh E 4.0 mph6.4 kmh 29.91 in1012.9 mb - 0.00 in0.0 mm 0.00 in0.0 mm
04:27 PM 74.3°F23.5°C 49.1°F9.5°C 41% 2.9 mph ESE4.7 kmh ESE 2.0 mph3.2 kmh 29.91 in1012.9 mb - 0.00 in0.0 mm 0.00 in0.0 mm
04:32 PM 74.1°F23.4°C 50.9°F10.5°C 44% 2.9 mph ENE4.7 kmh ENE 2.9 mph4.7 kmh 29.91 in1012.9 mb - 0.00 in0.0 mm 0.00 in0.0 mm
04:37 PM 74.1°F23.4°C 48.9°F9.4°C 41% 2.9 mph E4.7 kmh E 2.9 mph4.7 kmh 29.91 in1012.9 mb - 0.00 in0.0 mm 0.00 in0.0 mm
04:42 PM 74.1°F23.4°C 49.6°F9.8°C 42% 2.9 mph ENE4.7 kmh ENE 2.0 mph3.2 kmh 29.91 in1012.9 mb - 0.00 in0.0 mm 0.00 in0.0 mm
04:47 PM 74.5°F23.6°C 49.8°F9.9°C 42% 2.9 mph NE4.7 kmh NE 2.9 mph4.7 kmh 29.91 in1012.9 mb - 0.00 in0.0 mm 0.00 in0.0 mm
04:52 PM 75.0°F23.9°C 51.6°F10.9°C 44% 2.9 mph NE4.7 kmh NE 2.0 mph3.2 kmh 29.91 in1012.9 mb - 0.00 in0.0 mm 0.00 in0.0 mm
04:57 PM 75.6°F24.2°C 49.5°F9.7°C 40% 4.0 mph SE6.4 kmh SE 2.9 mph4.7 kmh 29.91 in1012.9 mb - 0.00 in0.0 mm 0.00 in0.0 mm
05:02 PM 75.7°F24.3°C 49.6°F9.8°C 40% 2.9 mph SE4.7 kmh SE 4.9 mph7.9 kmh 29.90 in1012.5 mb - 0.00 in0.0 mm 0.00 in0.0 mm
05:07 PM 75.7°F24.3°C 48.4°F9.1°C 38% 2.9 mph E4.7 kmh E 2.0 mph3.2 kmh 29.90 in1012.5 mb - 0.00 in0.0 mm 0.00 in0.0 mm
05:12 PM 75.7°F24.3°C 49.1°F9.5°C 39% 2.9 mph E4.7 kmh E 2.9 mph4.7 kmh 29.90 in1012.5 mb - 0.00 in0.0 mm 0.00 in0.0 mm
05:17 PM 75.7°F24.3°C 49.6°F9.8°C 40% 2.9 mph ENE4.7 kmh ENE 2.9 mph4.7 kmh 29.90 in1012.5 mb - 0.00 in0.0 mm 0.00 in0.0 mm
05:22 PM 75.7°F24.3°C 49.1°F9.5°C 39% 2.9 mph E4.7 kmh E 2.0 mph3.2 kmh 29.90 in1012.5 mb - 0.00 in0.0 mm 0.00 in0.0 mm
05:27 PM 75.7°F24.3°C 48.4°F9.1°C 38% 2.9 mph E4.7 kmh E 2.0 mph3.2 kmh 29.90 in1012.5 mb - 0.00 in0.0 mm 0.00 in0.0 mm
05:32 PM 75.6°F24.2°C 48.2°F9.0°C 38% 2.9 mph E4.7 kmh E 2.0 mph3.2 kmh 29.90 in1012.5 mb - 0.00 in0.0 mm 0.00 in0.0 mm
05:37 PM 75.6°F24.2°C 48.2°F9.0°C 38% 2.9 mph E4.7 kmh E 2.0 mph3.2 kmh 29.90 in1012.5 mb - 0.00 in0.0 mm 0.00 in0.0 mm
05:42 PM 75.6°F24.2°C 48.2°F9.0°C 38% 2.9 mph NE4.7 kmh NE 2.9 mph4.7 kmh 29.90 in1012.5 mb - 0.00 in0.0 mm 0.00 in0.0 mm
05:47 PM 75.6°F24.2°C 48.9°F9.4°C 39% 2.9 mph E4.7 kmh E 4.0 mph6.4 kmh 29.89 in1012.2 mb - 0.00 in0.0 mm 0.00 in0.0 mm
05:52 PM 75.6°F24.2°C 48.9°F9.4°C 39% 2.9 mph E4.7 kmh E 2.9 mph4.7 kmh 29.89 in1012.2 mb - 0.00 in0.0 mm 0.00 in0.0 mm
05:57 PM 75.4°F24.1°C 48.0°F8.9°C 38% 2.9 mph SE4.7 kmh SE 0.9 mph1.4 kmh 29.89 in1012.2 mb - 0.00 in0.0 mm 0.00 in0.0 mm
06:02 PM 75.4°F24.1°C 48.7°F9.3°C 39% 2.9 mph NE4.7 kmh NE 2.0 mph3.2 kmh 29.89 in1012.2 mb - 0.00 in0.0 mm 0.00 in0.0 mm
06:07 PM 75.2°F24.0°C 47.8°F8.8°C 38% 2.9 mph ENE4.7 kmh ENE 4.0 mph6.4 kmh 29.89 in1012.2 mb - 0.00 in0.0 mm 0.00 in0.0 mm
06:12 PM 75.0°F23.9°C 48.4°F9.1°C 39% 2.9 mph E4.7 kmh E 2.9 mph4.7 kmh 29.89 in1012.2 mb - 0.00 in0.0 mm 0.00 in0.0 mm
06:17 PM 74.8°F23.8°C 48.9°F9.4°C 40% 2.0 mph ENE3.2 kmh ENE 2.9 mph4.7 kmh 29.89 in1012.2 mb - 0.00 in0.0 mm 0.00 in0.0 mm
06:22 PM 74.8°F23.8°C 48.9°F9.4°C 40% 2.0 mph ENE3.2 kmh ENE 2.9 mph4.7 kmh 29.89 in1012.2 mb - 0.00 in0.0 mm 0.00 in0.0 mm
06:27 PM 74.5°F23.6°C 47.8°F8.8°C 39% 2.0 mph ENE3.2 kmh ENE 2.0 mph3.2 kmh 29.89 in1012.2 mb - 0.00 in0.0 mm 0.00 in0.0 mm
06:32 PM 74.1°F23.4°C 48.9°F9.4°C 41% 2.0 mph ENE3.2 kmh ENE 2.0 mph3.2 kmh 29.89 in1012.2 mb - 0.00 in0.0 mm 0.00 in0.0 mm
06:37 PM 74.3°F23.5°C 48.4°F9.1°C 40% 2.0 mph ENE3.2 kmh ENE 0.9 mph1.4 kmh 29.89 in1012.2 mb - 0.00 in0.0 mm 0.00 in0.0 mm
06:42 PM 74.3°F23.5°C 48.4°F9.1°C 40% 2.0 mph ENE3.2 kmh ENE 2.0 mph3.2 kmh 29.89 in1012.2 mb - 0.00 in0.0 mm 0.00 in0.0 mm
06:47 PM 74.5°F23.6°C 49.3°F9.6°C 41% 0.9 mph ENE1.4 kmh ENE 2.0 mph3.2 kmh 29.89 in1012.2 mb - 0.00 in0.0 mm 0.00 in0.0 mm
06:52 PM 74.1°F23.4°C 48.2°F9.0°C 40% 0.9 mph E1.4 kmh E 0.9 mph1.4 kmh 29.89 in1012.2 mb - 0.00 in0.0 mm 0.00 in0.0 mm
06:57 PM 73.6°F23.1°C 49.1°F9.5°C 42% 2.0 mph E3.2 kmh E 0.9 mph1.4 kmh 29.89 in1012.2 mb - 0.00 in0.0 mm 0.00 in0.0 mm
07:02 PM 73.2°F22.9°C 49.5°F9.7°C 43% 2.0 mph E3.2 kmh E 0.9 mph1.4 kmh 29.89 in1012.2 mb - 0.00 in0.0 mm 0.00 in0.0 mm
07:07 PM 72.9°F22.7°C 49.1°F9.5°C 43% 2.0 mph E3.2 kmh E -- 29.89 in1012.2 mb - 0.00 in0.0 mm 0.00 in0.0 mm
07:12 PM 72.3°F22.4°C 49.1°F9.5°C 44% 0.9 mph E1.4 kmh E 0.9 mph1.4 kmh 29.89 in1012.2 mb - 0.00 in0.0 mm 0.00 in0.0 mm
07:17 PM 72.0°F22.2°C 48.9°F9.4°C 44% 0.9 mph E1.4 kmh E 0.9 mph1.4 kmh 29.90 in1012.5 mb - 0.00 in0.0 mm 0.00 in0.0 mm
07:22 PM 71.4°F21.9°C 50.2°F10.1°C 47% 0.9 mph E1.4 kmh E 2.0 mph3.2 kmh 29.90 in1012.5 mb - 0.00 in0.0 mm 0.00 in0.0 mm
07:27 PM 70.9°F21.6°C 50.7°F10.4°C 49% 0.9 mph E1.4 kmh E 2.0 mph3.2 kmh 29.90 in1012.5 mb - 0.00 in0.0 mm 0.00 in0.0 mm
07:32 PM 70.2°F21.2°C 51.8°F11.0°C 52% 0.9 mph E1.4 kmh E 0.9 mph1.4 kmh 29.90 in1012.5 mb - 0.00 in0.0 mm 0.00 in0.0 mm
07:37 PM 69.3°F20.7°C 50.9°F10.5°C 52% 2.0 mph E3.2 kmh E 2.0 mph3.2 kmh 29.90 in1012.5 mb - 0.00 in0.0 mm 0.00 in0.0 mm
07:42 PM 68.4°F20.2°C 51.1°F10.6°C 54% 2.0 mph E3.2 kmh E 2.0 mph3.2 kmh 29.90 in1012.5 mb - 0.00 in0.0 mm 0.00 in0.0 mm
07:47 PM 67.6°F19.8°C 50.9°F10.5°C 55% 2.0 mph E3.2 kmh E 2.9 mph4.7 kmh 29.91 in1012.9 mb - 0.00 in0.0 mm 0.00 in0.0 mm
07:52 PM 67.3°F19.6°C 51.1°F10.6°C 56% 2.0 mph W3.2 kmh W 2.9 mph4.7 kmh 29.91 in1012.9 mb - 0.00 in0.0 mm 0.00 in0.0 mm
07:57 PM 66.7°F19.3°C 51.4°F10.8°C 58% 2.9 mph W4.7 kmh W 2.0 mph3.2 kmh 29.91 in1012.9 mb - 0.00 in0.0 mm 0.00 in0.0 mm
08:02 PM 66.6°F19.2°C 51.8°F11.0°C 59% 2.9 mph W4.7 kmh W 2.0 mph3.2 kmh 29.91 in1012.9 mb - 0.00 in0.0 mm 0.00 in0.0 mm
08:07 PM 66.2°F19.0°C 51.4°F10.8°C 59% 2.9 mph W4.7 kmh W 2.9 mph4.7 kmh 29.91 in1012.9 mb - 0.00 in0.0 mm 0.00 in0.0 mm
08:12 PM 65.8°F18.8°C 51.6°F10.9°C 60% 2.9 mph W4.7 kmh W 2.9 mph4.7 kmh 29.91 in1012.9 mb - 0.00 in0.0 mm 0.00 in0.0 mm
08:17 PM 65.7°F18.7°C 51.4°F10.8°C 60% 2.9 mph W4.7 kmh W 2.9 mph4.7 kmh 29.91 in1012.9 mb - 0.00 in0.0 mm 0.00 in0.0 mm
08:22 PM 65.5°F18.6°C 51.3°F10.7°C 60% 2.9 mph WSW4.7 kmh WSW 4.0 mph6.4 kmh 29.91 in1012.9 mb - 0.00 in0.0 mm 0.00 in0.0 mm
08:27 PM 65.1°F18.4°C 51.3°F10.7°C 61% 2.9 mph WSW4.7 kmh WSW 2.9 mph4.7 kmh 29.91 in1012.9 mb - 0.00 in0.0 mm 0.00 in0.0 mm
08:32 PM 64.9°F18.3°C 51.6°F10.9°C 62% 2.9 mph W4.7 kmh W 2.0 mph3.2 kmh 29.91 in1012.9 mb - 0.00 in0.0 mm 0.00 in0.0 mm
08:37 PM 64.8°F18.2°C 51.4°F10.8°C 62% 2.9 mph W4.7 kmh W 2.0 mph3.2 kmh 29.91 in1012.9 mb - 0.00 in0.0 mm 0.00 in0.0 mm
08:42 PM 64.6°F18.1°C 51.3°F10.7°C 62% 2.9 mph W4.7 kmh W 4.0 mph6.4 kmh 29.91 in1012.9 mb - 0.00 in0.0 mm 0.00 in0.0 mm
08:47 PM 64.4°F18.0°C 51.1°F10.6°C 62% 2.9 mph W4.7 kmh W 2.0 mph3.2 kmh 29.91 in1012.9 mb - 0.00 in0.0 mm 0.00 in0.0 mm
08:52 PM 64.2°F17.9°C 50.9°F10.5°C 62% 2.9 mph WNW4.7 kmh WNW 2.9 mph4.7 kmh 29.91 in1012.9 mb - 0.00 in0.0 mm 0.00 in0.0 mm
08:57 PM 64.0°F17.8°C 51.3°F10.7°C 63% 2.9 mph W4.7 kmh W 2.0 mph3.2 kmh 29.91 in1012.9 mb - 0.00 in0.0 mm 0.00 in0.0 mm
09:02 PM 63.9°F17.7°C 51.1°F10.6°C 63% 2.9 mph WNW4.7 kmh WNW 2.9 mph4.7 kmh 29.91 in1012.9 mb - 0.00 in0.0 mm 0.00 in0.0 mm
09:07 PM 63.7°F17.6°C 50.9°F10.5°C 63% 2.9 mph W4.7 kmh W 2.0 mph3.2 kmh 29.91 in1012.9 mb - 0.00 in0.0 mm 0.00 in0.0 mm
09:12 PM 63.7°F17.6°C 50.9°F10.5°C 63% 2.9 mph W4.7 kmh W 2.9 mph4.7 kmh 29.91 in1012.9 mb - 0.00 in0.0 mm 0.00 in0.0 mm
09:17 PM 63.3°F17.4°C 50.9°F10.5°C 64% 2.9 mph W4.7 kmh W 4.0 mph6.4 kmh 29.91 in1012.9 mb - 0.00 in0.0 mm 0.00 in0.0 mm
09:22 PM 63.3°F17.4°C 50.9°F10.5°C 64% 2.9 mph W4.7 kmh W 2.9 mph4.7 kmh 29.91 in1012.9 mb - 0.00 in0.0 mm 0.00 in0.0 mm
09:27 PM 63.0°F17.2°C 50.5°F10.3°C 64% 2.9 mph W4.7 kmh W 2.9 mph4.7 kmh 29.91 in1012.9 mb - 0.00 in0.0 mm 0.00 in0.0 mm
09:32 PM 62.8°F17.1°C 50.9°F10.5°C 65% 4.0 mph W6.4 kmh W 2.9 mph4.7 kmh 29.91 in1012.9 mb - 0.00 in0.0 mm 0.00 in0.0 mm
09:37 PM 62.6°F17.0°C 50.7°F10.4°C 65% 4.0 mph W6.4 kmh W 2.9 mph4.7 kmh 29.91 in1012.9 mb - 0.00 in0.0 mm 0.00 in0.0 mm
09:42 PM 62.4°F16.9°C 50.5°F10.3°C 65% 2.9 mph W4.7 kmh W 2.9 mph4.7 kmh 29.91 in1012.9 mb - 0.00 in0.0 mm 0.00 in0.0 mm
09:47 PM 62.1°F16.7°C 50.2°F10.1°C 65% 2.9 mph W4.7 kmh W 2.9 mph4.7 kmh 29.91 in1012.9 mb - 0.00 in0.0 mm 0.00 in0.0 mm
09:52 PM 62.1°F16.7°C 50.5°F10.3°C 66% 2.9 mph W4.7 kmh W 4.0 mph6.4 kmh 29.91 in1012.9 mb - 0.00 in0.0 mm 0.00 in0.0 mm
09:57 PM 61.9°F16.6°C 50.4°F10.2°C 66% 2.9 mph W4.7 kmh W 4.0 mph6.4 kmh 29.91 in1012.9 mb - 0.00 in0.0 mm 0.00 in0.0 mm
10:02 PM 61.7°F16.5°C 50.7°F10.4°C 67% 2.9 mph W4.7 kmh W 4.0 mph6.4 kmh 29.91 in1012.9 mb - 0.00 in0.0 mm 0.00 in0.0 mm
10:07 PM 61.3°F16.3°C 50.4°F10.2°C 67% 2.9 mph WSW4.7 kmh WSW 4.0 mph6.4 kmh 29.91 in1012.9 mb - 0.00 in0.0 mm 0.00 in0.0 mm
10:12 PM 61.2°F16.2°C 50.2°F10.1°C 67% 2.9 mph W4.7 kmh W 4.0 mph6.4 kmh 29.91 in1012.9 mb - 0.00 in0.0 mm 0.00 in0.0 mm
10:17 PM 61.0°F16.1°C 50.4°F10.2°C 68% 4.0 mph W6.4 kmh W 2.9 mph4.7 kmh 29.92 in1013.2 mb - 0.00 in0.0 mm 0.00 in0.0 mm
10:22 PM 61.0°F16.1°C 50.4°F10.2°C 68% 4.0 mph WSW6.4 kmh WSW 2.9 mph4.7 kmh 29.92 in1013.2 mb - 0.00 in0.0 mm 0.00 in0.0 mm
10:27 PM 60.6°F15.9°C 50.0°F10.0°C 68% 4.0 mph WSW6.4 kmh WSW 4.0 mph6.4 kmh 29.92 in1013.2 mb - 0.00 in0.0 mm 0.00 in0.0 mm
10:32 PM 60.6°F15.9°C 50.0°F10.0°C 68% 4.0 mph WSW6.4 kmh WSW 2.0 mph3.2 kmh 29.92 in1013.2 mb - 0.00 in0.0 mm 0.00 in0.0 mm
10:37 PM 60.6°F15.9°C 50.0°F10.0°C 68% 4.0 mph W6.4 kmh W 2.9 mph4.7 kmh 29.92 in1013.2 mb - 0.00 in0.0 mm 0.00 in0.0 mm
10:42 PM 60.4°F15.8°C 49.8°F9.9°C 68% 4.0 mph WNW6.4 kmh WNW 4.9 mph7.9 kmh 29.92 in1013.2 mb - 0.00 in0.0 mm 0.00 in0.0 mm
10:47 PM 60.4°F15.8°C 49.8°F9.9°C 68% 4.0 mph WSW6.4 kmh WSW 4.0 mph6.4 kmh 29.92 in1013.2 mb - 0.00 in0.0 mm 0.00 in0.0 mm
10:52 PM 60.3°F15.7°C 49.6°F9.8°C 68% 4.9 mph W7.9 kmh W 4.0 mph6.4 kmh 29.92 in1013.2 mb - 0.00 in0.0 mm 0.00 in0.0 mm
10:57 PM 60.1°F15.6°C 49.5°F9.7°C 68% 4.0 mph W6.4 kmh W 4.0 mph6.4 kmh 29.92 in1013.2 mb - 0.00 in0.0 mm 0.00 in0.0 mm
11:02 PM 60.1°F15.6°C 49.8°F9.9°C 69% 4.0 mph W6.4 kmh W 2.9 mph4.7 kmh 29.92 in1013.2 mb - 0.00 in0.0 mm 0.00 in0.0 mm
11:07 PM 59.7°F15.4°C 49.5°F9.7°C 69% 4.0 mph W6.4 kmh W 2.0 mph3.2 kmh 29.92 in1013.2 mb - 0.00 in0.0 mm 0.00 in0.0 mm
11:12 PM 59.5°F15.3°C 49.8°F9.9°C 70% 4.0 mph WSW6.4 kmh WSW 6.0 mph9.7 kmh 29.92 in1013.2 mb - 0.00 in0.0 mm 0.00 in0.0 mm
11:17 PM 59.5°F15.3°C 49.3°F9.6°C 69% 4.0 mph WSW6.4 kmh WSW 2.0 mph3.2 kmh 29.92 in1013.2 mb - 0.00 in0.0 mm 0.00 in0.0 mm
11:22 PM 59.5°F15.3°C 49.3°F9.6°C 69% 4.9 mph W7.9 kmh W 6.0 mph9.7 kmh 29.92 in1013.2 mb - 0.00 in0.0 mm 0.00 in0.0 mm
11:27 PM 59.5°F15.3°C 49.8°F9.9°C 70% 4.9 mph WSW7.9 kmh WSW 4.0 mph6.4 kmh 29.92 in1013.2 mb - 0.00 in0.0 mm 0.00 in0.0 mm
11:32 PM 59.5°F15.3°C 49.3°F9.6°C 69% 4.0 mph W6.4 kmh W 6.0 mph9.7 kmh 29.92 in1013.2 mb - 0.00 in0.0 mm 0.00 in0.0 mm
11:37 PM 59.4°F15.2°C 49.1°F9.5°C 69% 4.9 mph SW7.9 kmh SW 4.9 mph7.9 kmh 29.92 in1013.2 mb - 0.00 in0.0 mm 0.00 in0.0 mm
11:42 PM 59.4°F15.2°C 49.1°F9.5°C 69% 4.0 mph W6.4 kmh W 4.0 mph6.4 kmh 29.92 in1013.2 mb - 0.00 in0.0 mm 0.00 in0.0 mm
11:47 PM 59.2°F15.1°C 49.5°F9.7°C 70% 4.0 mph W6.4 kmh W 6.0 mph9.7 kmh 29.92 in1013.2 mb - 0.00 in0.0 mm 0.00 in0.0 mm
11:52 PM 58.8°F14.9°C 49.1°F9.5°C 70% 4.9 mph W7.9 kmh W 4.0 mph6.4 kmh 29.92 in1013.2 mb - 0.00 in0.0 mm 0.00 in0.0 mm
11:57 PM 58.8°F14.9°C 49.1°F9.5°C 70% 4.9 mph W7.9 kmh W 10.1 mph16.3 kmh 29.92 in1013.2 mb - 0.00 in0.0 mm 0.00 in0.0 mm